Time;durP1;ratioP1;P1;durP2;ratioP2;P2;SDS_P1;SDS_P2;PMS_P1;PMS_P2;Temp;Humidity;BMP_temperature;BMP_pressure;BME280_temperature;BME280_humidity;BME280_pressure;Samples;Min_cycle;Max_cycle;Signal;HPM_P1;HPM_P2
2023/07/11 00:01:17;;;;;;;10.30;4.30;;;;;;;25.17;46.35;100753.88;4166054;28;20068;-75
2023/07/11 00:03:21;;;;;;;7.68;4.22;;;;;;;25.19;46.25;100744.91;4185550;28;20064;-74
2023/07/11 00:05:24;;;;;;;8.70;4.27;;;;;;;25.10;46.72;100750.59;4165942;28;20470;-75
2023/07/11 00:07:27;;;;;;;7.75;4.45;;;;;;;25.09;46.57;100748.88;4171095;28;20041;-75
2023/07/11 00:09:32;;;;;;;7.53;4.43;;;;;;;25.06;46.79;100744.53;4168212;28;20487;-75
2023/07/11 00:11:34;;;;;;;;;;;;;;;24.88;47.24;100740.88;4169422;28;20061;-76
2023/07/11 00:13:39;;;;;;;9.32;4.00;;;;;;;24.90;47.20;100748.78;4176499;28;20007;-76
2023/07/11 00:15:46;;;;;;;8.30;4.50;;;;;;;24.84;47.07;100744.56;4162539;28;20045;-75
2023/07/11 00:17:50;;;;;;;8.35;4.38;;;;;;;24.80;47.29;100742.09;4171285;28;20125;-75
2023/07/11 00:19:54;;;;;;;8.65;4.05;;;;;;;24.72;47.59;100737.97;4169973;28;20454;-75
2023/07/11 00:21:57;;;;;;;10.23;4.47;;;;;;;24.78;47.47;100739.50;4174772;28;20513;-75
2023/07/11 00:24:03;;;;;;;11.05;4.30;;;;;;;24.88;47.24;100740.88;4171806;28;20053;-76
2023/07/11 00:26:08;;;;;;;9.25;5.00;;;;;;;24.92;47.01;100737.13;4165713;28;20530;-76
2023/07/11 00:28:11;;;;;;;13.70;4.47;;;;;;;24.83;47.40;100736.66;4169744;28;20395;-75
2023/07/11 00:30:14;;;;;;;11.43;4.68;;;;;;;24.74;47.63;100728.13;4170682;28;20467;-75
2023/07/11 00:32:17;;;;;;;8.85;4.47;;;;;;;24.69;47.93;100732.78;4171085;28;20425;-75
2023/07/11 00:34:20;;;;;;;11.48;4.38;;;;;;;24.70;47.60;100731.81;4161754;28;20454;-75
2023/07/11 00:36:22;;;;;;;11.15;4.60;;;;;;;24.66;47.77;100735.56;4151544;28;20414;-75
2023/07/11 00:38:27;;;;;;;11.20;4.88;;;;;;;24.61;48.04;100734.88;4173470;28;20549;-75
2023/07/11 00:40:31;;;;;;;11.85;4.13;;;;;;;24.66;47.85;100732.00;4168490;28;20079;-75
2023/07/11 00:42:36;;;;;;;8.50;4.30;;;;;;;24.70;47.90;100737.13;4166833;28;20041;-75
2023/07/11 00:44:52;;;;;;;;;;;;;;;24.62;48.40;100733.94;4168552;28;20073;-74
2023/07/11 00:46:55;;;;;;;10.63;4.40;;;;;;;24.65;48.26;100739.13;4163204;28;19928;-74
2023/07/11 00:49:00;;;;;;;14.20;4.57;;;;;;;24.67;48.31;100731.94;4173310;28;20380;-75
2023/07/11 00:51:04;;;;;;;9.57;4.60;;;;;;;24.61;48.39;100734.00;4170733;28;20033;-75
2023/07/11 00:53:08;;;;;;;13.10;4.43;;;;;;;24.57;48.53;100736.75;4184160;28;20090;-75
2023/07/11 00:55:14;;;;;;;10.50;4.10;;;;;;;24.61;47.98;100737.53;4167338;28;20124;-75
2023/07/11 00:57:19;;;;;;;11.88;4.93;;;;;;;24.62;48.12;100733.94;4172294;28;20122;-74
2023/07/11 00:59:24;;;;;;;11.13;4.45;;;;;;;24.58;48.16;100733.16;4175984;28;20150;-74
2023/07/11 01:01:26;;;;;;;8.63;5.00;;;;;;;24.54;48.44;100726.22;4163901;28;20136;-75
2023/07/11 01:03:29;;;;;;;9.80;4.43;;;;;;;24.48;48.59;100728.28;4174902;28;20124;-75
2023/07/11 01:05:32;;;;;;;7.78;4.20;;;;;;;24.45;48.49;100718.63;4165152;28;20061;-74
2023/07/11 01:07:37;;;;;;;13.55;4.68;;;;;;;24.40;48.36;100717.97;4168647;28;20502;-74
2023/07/11 01:09:40;;;;;;;5.90;4.07;;;;;;;24.39;48.35;100722.38;4169594;28;20044;-74
2023/07/11 01:11:54;;;;;;;10.02;4.15;;;;;;;24.36;48.39;100719.00;4168847;28;20124;-74
2023/07/11 01:13:57;;;;;;;6.97;3.97;;;;;;;24.35;48.33;100711.94;4159259;28;20061;-76
2023/07/11 01:16:01;;;;;;;9.70;4.03;;;;;;;24.45;47.94;100715.97;4170599;28;20123;-74
2023/07/11 01:18:04;;;;;;;7.03;4.32;;;;;;;24.46;48.30;100711.50;4164292;28;20419;-74
2023/07/11 01:20:10;;;;;;;7.25;3.38;;;;;;;24.48;48.49;100712.31;4164690;28;20075;-74
2023/07/11 01:22:14;;;;;;;9.70;3.90;;;;;;;24.47;48.36;100715.91;4163872;28;20423;-74
2023/07/11 01:24:17;;;;;;;7.65;4.20;;;;;;;24.45;48.23;100718.63;4171731;28;20578;-74
2023/07/11 01:26:21;;;;;;;5.97;4.25;;;;;;;24.53;47.74;100715.66;4162497;28;20071;-74
2023/07/11 01:28:22;;;;;;;8.23;4.50;;;;;;;24.51;47.50;100722.84;4189315;28;20091;-74
2023/07/11 01:30:25;;;;;;;10.88;4.32;;;;;;;24.45;47.61;100718.63;4175004;28;20135;-74
2023/07/11 01:32:28;;;;;;;6.32;3.90;;;;;;;24.42;47.57;100712.56;4173490;28;20044;-74
2023/07/11 01:34:30;;;;;;;8.00;4.20;;;;;;;24.33;47.92;100712.00;4164148;28;20048;-74
2023/07/11 01:36:34;;;;;;;6.78;4.70;;;;;;;24.34;47.64;100713.75;4169295;28;20041;-74
2023/07/11 01:38:38;;;;;;;12.48;5.03;;;;;;;24.31;47.50;100705.00;4171539;28;20120;-74
2023/07/11 01:40:43;;;;;;;9.88;4.13;;;;;;;24.26;47.88;100705.19;4168321;28;20129;-74
2023/07/11 01:42:46;;;;;;;8.07;4.10;;;;;;;24.23;47.97;100707.97;4162711;28;20037;-75
2023/07/11 01:44:49;;;;;;;8.95;4.10;;;;;;;24.22;48.25;100704.47;4165239;28;20498;-75
2023/07/11 01:46:52;;;;;;;6.68;3.95;;;;;;;24.33;47.94;100700.53;4171423;28;20075;-74
2023/07/11 01:48:55;;;;;;;7.78;4.03;;;;;;;24.29;48.29;100697.09;4168548;28;20523;-74
2023/07/11 01:50:58;;;;;;;6.22;4.00;;;;;;;24.25;48.33;100689.31;4152152;28;20050;-74
2023/07/11 01:53:01;;;;;;;8.50;4.03;;;;;;;24.18;48.07;100686.91;4156153;28;20531;-74
2023/07/11 01:55:09;;;;;;;6.78;4.32;;;;;;;24.15;48.30;100687.03;4176319;28;20132;-74
2023/07/11 01:57:12;;;;;;;8.35;4.43;;;;;;;24.06;48.45;100682.06;4174934;28;20079;-75
2023/07/11 01:59:14;;;;;;;10.75;4.57;;;;;;;24.03;48.74;100687.47;4164537;28;20142;-74
2023/07/11 02:01:17;;;;;;;8.82;4.60;;;;;;;24.07;48.41;100675.81;4169417;28;20064;-74
2023/07/11 02:03:20;;;;;;;9.80;4.40;;;;;;;24.16;48.30;100678.13;4170182;28;20045;-74
2023/07/11 02:05:23;;;;;;;6.57;3.85;;;;;;;24.11;48.62;100672.13;4169465;28;20041;-74
2023/07/11 02:07:26;;;;;;;7.65;4.15;;;;;;;24.03;48.82;100674.22;4172212;28;20553;-74
2023/07/11 02:09:29;;;;;;;8.80;3.85;;;;;;;23.96;48.86;100668.28;4168853;28;20491;-74
2023/07/11 02:11:34;;;;;;;9.02;4.18;;;;;;;23.90;49.10;100671.16;4157532;28;20080;-74
2023/07/11 02:13:37;;;;;;;9.07;4.35;;;;;;;23.85;49.14;100673.09;4166819;28;20037;-74
2023/07/11 02:15:40;;;;;;;10.88;4.05;;;;;;;23.85;49.21;100667.78;4171279;28;20593;-75
2023/07/11 02:17:43;;;;;;;8.73;4.00;;;;;;;23.87;49.25;100661.53;4172442;28;20030;-75
2023/07/11 02:19:56;;;;;;;8.48;4.35;;;;;;;23.82;49.09;100641.34;4170575;28;20040;-73
2023/07/11 02:22:00;;;;;;;8.05;4.20;;;;;;;23.94;49.22;100664.81;4176960;28;20033;-73
2023/07/11 02:24:03;;;;;;;7.75;3.33;;;;;;;23.99;49.20;100662.84;4179715;28;20045;-73
2023/07/11 02:26:05;;;;;;;7.15;3.88;;;;;;;24.01;49.19;100666.31;4181345;28;20047;-73
2023/07/11 02:28:10;;;;;;;9.23;4.28;;;;;;;23.99;49.40;100665.50;4181307;28;20544;-73
2023/07/11 02:30:13;;;;;;;9.30;4.13;;;;;;;23.97;49.72;100664.69;4180806;28;20037;-73
2023/07/11 02:32:16;;;;;;;11.10;4.18;;;;;;;23.88;49.41;100657.06;4181557;28;20506;-75
2023/07/11 02:34:19;;;;;;;6.95;4.55;;;;;;;23.74;49.34;100646.06;4178753;28;20164;-73
2023/07/11 02:36:22;;;;;;;6.68;3.95;;;;;;;23.61;49.99;100650.97;4180588;28;20127;-73
2023/07/11 02:38:24;;;;;;;7.95;4.15;;;;;;;23.63;50.34;100651.81;4181052;28;20041;-73
2023/07/11 02:40:27;;;;;;;9.82;4.00;;;;;;;23.75;50.74;100647.81;4166321;28;20407;-73
2023/07/11 02:42:30;;;;;;;7.03;4.10;;;;;;;23.76;50.54;100652.19;4165903;28;20136;-73
2023/07/11 02:44:34;;;;;;;6.88;4.72;;;;;;;23.81;50.86;100650.22;4176639;28;20120;-73
2023/07/11 02:46:37;;;;;;;6.68;4.63;;;;;;;23.81;50.62;100652.88;4180380;28;20499;-73
2023/07/11 02:48:40;;;;;;;8.63;4.30;;;;;;;23.80;50.83;100653.81;4180805;28;20029;-73
2023/07/11 02:50:44;;;;;;;7.63;4.45;;;;;;;23.85;50.56;100649.19;4180474;28;20037;-74
2023/07/11 02:52:47;;;;;;;7.57;4.03;;;;;;;23.78;50.65;100651.22;4180698;28;20425;-74
2023/07/11 02:54:50;;;;;;;8.48;4.22;;;;;;;23.74;50.99;100654.03;4169661;28;20691;-74
2023/07/11 02:56:53;;;;;;;6.47;3.85;;;;;;;23.69;50.98;100655.06;4180151;28;20061;-74
2023/07/11 02:59:00;;;;;;;8.27;4.45;;;;;;;23.67;51.38;100661.34;4181023;28;20084;-74
2023/07/11 03:01:04;;;;;;;6.40;4.15;;;;;;;23.64;51.74;100648.19;4180521;28;20041;-74
2023/07/11 03:03:07;;;;;;;10.07;4.55;;;;;;;23.64;52.12;100653.50;4169493;28;20122;-74
2023/07/11 03:05:10;;;;;;;7.60;4.20;;;;;;;23.66;51.92;100647.22;4162737;28;20045;-73
2023/07/11 03:07:12;;;;;;;7.32;4.60;;;;;;;23.56;52.17;100648.50;4180373;28;20056;-73
2023/07/11 03:09:15;;;;;;;9.85;4.82;;;;;;;23.50;52.06;100646.06;4180505;28;20041;-73
2023/07/11 03:11:18;;;;;;;11.25;4.50;;;;;;;23.40;52.13;100639.38;4180752;28;20041;-74
2023/07/11 03:13:21;;;;;;;8.57;4.70;;;;;;;23.26;52.74;100639.84;4176217;28;20465;-73
2023/07/11 03:15:23;;;;;;;13.43;5.10;;;;;;;23.35;52.64;100632.44;4179424;28;20049;-73
2023/07/11 03:17:28;;;;;;;12.63;4.95;;;;;;;23.46;52.19;100639.13;4167514;28;20053;-72
2023/07/11 03:19:30;;;;;;;;;;;;;;;23.38;52.48;100639.44;4180320;28;20507;-73
2023/07/11 03:21:33;;;;;;;6.88;4.47;;;;;;;23.42;52.18;100637.50;4144158;28;20007;-73
2023/07/11 03:23:35;;;;;;;8.50;4.90;;;;;;;23.35;51.68;100642.19;4159137;28;20125;-73
2023/07/11 03:25:39;;;;;;;7.15;4.07;;;;;;;23.26;52.43;100639.84;4177423;28;20045;-73
2023/07/11 03:27:41;;;;;;;8.45;4.55;;;;;;;23.33;51.97;100636.06;4162110;28;20037;-73
2023/07/11 03:29:44;;;;;;;8.18;4.35;;;;;;;23.30;51.99;100639.69;4179150;28;20041;-74
2023/07/11 03:31:48;;;;;;;8.20;4.93;;;;;;;23.32;51.56;100627.25;4179317;28;20063;-73
2023/07/11 03:33:52;;;;;;;6.82;4.50;;;;;;;23.30;51.76;100647.66;4178869;28;20135;-73
2023/07/11 03:35:54;;;;;;;6.63;4.32;;;;;;;23.23;52.12;100635.56;4179962;28;20033;-73
2023/07/11 03:37:57;;;;;;;6.75;4.30;;;;;;;23.21;52.13;100640.03;4179512;28;20091;-73
2023/07/11 03:40:00;;;;;;;9.43;4.63;;;;;;;23.24;52.37;100636.41;4172580;28;20040;-74
2023/07/11 03:42:03;;;;;;;7.85;4.07;;;;;;;23.31;52.01;100630.81;4178439;28;21463;-73
2023/07/11 03:44:06;;;;;;;8.98;5.20;;;;;;;23.35;51.72;100632.44;4176810;28;20037;-74
2023/07/11 03:46:09;;;;;;;8.25;4.07;;;;;;;23.36;51.85;100628.00;4144088;28;20042;-74
2023/07/11 03:48:13;;;;;;;7.10;4.28;;;;;;;23.38;51.78;100630.59;4157267;28;20056;-74
2023/07/11 03:50:18;;;;;;;7.82;5.07;;;;;;;23.41;51.79;100628.69;4174299;28;20040;-73
2023/07/11 03:52:21;;;;;;;9.75;5.10;;;;;;;23.44;51.66;100625.06;4177197;28;20128;-74
2023/07/11 03:54:24;;;;;;;14.00;4.63;;;;;;;23.52;51.82;100623.88;4160841;28;20042;-60
2023/07/11 03:56:27;;;;;;;5.78;4.07;;;;;;;23.56;51.71;100624.59;4160207;28;20052;-60
2023/07/11 03:58:30;;;;;;;5.95;4.00;;;;;;;23.59;51.83;100628.94;4177928;28;20055;-60
2023/07/11 04:00:33;;;;;;;10.88;4.40;;;;;;;23.69;51.47;100628.53;4149369;28;20112;-59
2023/07/11 04:02:36;;;;;;;9.93;4.95;;;;;;;23.68;51.22;100626.81;4177965;28;20106;-60
2023/07/11 04:04:39;;;;;;;8.70;4.47;;;;;;;23.74;51.12;100623.03;4179117;28;20515;-59
2023/07/11 04:06:43;;;;;;;7.15;4.30;;;;;;;23.66;51.27;100622.47;4176613;28;20120;-59
2023/07/11 04:08:47;;;;;;;6.70;4.05;;;;;;;23.73;51.27;100617.78;4156896;28;20065;-59
2023/07/11 04:10:50;;;;;;;13.02;5.05;;;;;;;23.78;51.39;100623.81;4162747;28;20063;-59
2023/07/11 04:12:53;;;;;;;8.77;4.47;;;;;;;23.85;51.65;100620.00;4177375;28;20508;-60
2023/07/11 04:14:56;;;;;;;8.85;4.72;;;;;;;23.86;51.21;100624.41;4159990;28;20056;-59
2023/07/11 04:16:59;;;;;;;7.55;4.95;;;;;;;23.81;51.34;100613.91;4177836;28;20478;-59
2023/07/11 04:19:02;;;;;;;7.15;4.50;;;;;;;23.80;51.22;100616.63;4179388;28;20479;-60
2023/07/11 04:21:05;;;;;;;9.50;4.40;;;;;;;23.80;51.15;100619.28;4158521;28;20038;-59
2023/07/11 04:23:09;;;;;;;9.88;4.45;;;;;;;23.75;51.67;100613.31;4159119;28;20033;-58
2023/07/11 04:25:11;;;;;;;;;;;;;;;23.62;51.61;100613.75;4157812;28;20046;-78
2023/07/11 04:27:15;;;;;;;11.07;5.03;;;;;;;23.57;51.96;100614.84;4159782;28;19921;-79
2023/07/11 04:29:18;;;;;;;10.30;5.10;;;;;;;23.50;51.82;100609.78;4163563;28;20048;-78
2023/07/11 04:31:26;;;;;;;13.77;5.25;;;;;;;23.51;52.12;100621.28;4177150;28;20120;-79
2023/07/11 04:33:29;;;;;;;11.43;5.38;;;;;;;23.48;52.23;100611.63;4179352;28;20121;-78
2023/07/11 04:35:32;;;;;;;10.10;4.97;;;;;;;23.47;52.27;100609.91;4177994;28;20049;-77
2023/07/11 04:37:35;;;;;;;10.57;5.35;;;;;;;23.49;52.24;100612.50;4174387;28;20072;-78
2023/07/11 04:39:41;;;;;;;13.07;5.20;;;;;;;23.49;52.33;100612.50;4178636;28;20053;-79
2023/07/11 04:41:43;;;;;;;6.60;4.25;;;;;;;23.46;52.22;100618.78;4162569;28;20041;-78
2023/07/11 04:43:46;;;;;;;10.43;5.43;;;;;;;23.48;52.43;100621.38;4175795;28;20120;-79
2023/07/11 04:45:49;;;;;;;10.55;4.88;;;;;;;23.50;52.28;100620.38;4159267;28;20048;-79
2023/07/11 04:47:52;;;;;;;10.90;4.63;;;;;;;23.50;52.36;100619.53;4178352;28;20060;-78
2023/07/11 04:49:55;;;;;;;9.27;5.00;;;;;;;23.47;52.19;100619.66;4162426;28;20034;-79
2023/07/11 04:51:58;;;;;;;11.00;5.80;;;;;;;23.45;52.29;100616.16;4144073;28;20140;-79
2023/07/11 04:54:01;;;;;;;11.75;4.60;;;;;;;23.48;52.10;100616.06;4176560;28;20048;-79
2023/07/11 04:56:07;;;;;;;7.70;4.18;;;;;;;23.51;51.88;100619.47;4164001;28;20495;-78
2023/07/11 04:58:10;;;;;;;13.20;5.00;;;;;;;23.54;51.99;100615.84;4178266;28;20037;-80
2023/07/11 05:00:14;;;;;;;8.98;5.63;;;;;;;23.55;51.64;100617.56;4178564;28;20509;-78
2023/07/11 05:02:17;;;;;;;8.50;4.70;;;;;;;23.57;51.69;100615.72;4178949;28;20045;-78
2023/07/11 05:04:20;;;;;;;15.15;5.78;;;;;;;23.59;51.81;100608.56;4177672;28;20045;-79
2023/07/11 05:06:23;;;;;;;14.00;5.53;;;;;;;23.63;51.34;100612.84;4175306;28;20490;-79
2023/07/11 05:08:26;;;;;;;10.52;4.70;;;;;;;23.67;51.46;100608.25;4163081;28;20041;-79
2023/07/11 05:10:29;;;;;;;9.55;5.32;;;;;;;23.68;51.33;100605.59;4178278;28;20453;-79
2023/07/11 05:12:33;;;;;;;10.32;5.38;;;;;;;23.71;51.47;100607.22;4178653;28;20044;-78
2023/07/11 05:14:36;;;;;;;9.38;5.28;;;;;;;23.72;51.65;100610.78;4177328;28;20033;-79
2023/07/11 05:16:39;;;;;;;8.57;4.93;;;;;;;23.75;51.96;100605.34;4177985;28;20508;-79
2023/07/11 05:18:42;;;;;;;10.23;4.65;;;;;;;23.76;52.30;100609.72;4160065;28;20106;-78
2023/07/11 05:20:54;;;;;;;10.10;4.82;;;;;;;23.80;52.53;100598.06;4171179;28;20087;-79
2023/07/11 05:22:56;;;;;;;10.95;5.30;;;;;;;23.83;53.04;100598.81;4178411;28;20114;-79
2023/07/11 05:24:59;;;;;;;15.98;5.07;;;;;;;23.86;53.21;100596.06;4177963;28;20051;-78
2023/07/11 05:27:03;;;;;;;11.50;5.28;;;;;;;23.92;53.58;100600.28;4174138;28;20060;-79
2023/07/11 05:29:08;;;;;;;12.95;5.75;;;;;;;23.96;53.64;100606.31;4177874;28;20040;-79
2023/07/11 05:31:10;;;;;;;9.10;5.20;;;;;;;23.95;53.75;100600.16;4156957;28;20625;-79
2023/07/11 05:33:14;;;;;;;15.95;5.10;;;;;;;23.95;54.00;100589.53;4159148;28;20037;-78
2023/07/11 05:35:17;;;;;;;10.50;5.20;;;;;;;23.98;53.72;100594.72;4177392;28;20047;-79
2023/07/11 05:37:20;;;;;;;10.02;5.32;;;;;;;23.97;53.47;100582.34;4175551;28;20049;-79
2023/07/11 05:39:22;;;;;;;9.10;5.40;;;;;;;23.99;52.65;100596.47;4177549;28;20041;-79
2023/07/11 05:41:24;;;;;;;15.00;6.05;;;;;;;24.03;52.52;100586.56;4178289;28;20037;-79
2023/07/11 05:43:28;;;;;;;10.80;5.40;;;;;;;24.16;52.52;100585.13;4178027;28;20048;-79
2023/07/11 05:45:32;;;;;;;7.67;4.87;;;;;;;24.26;52.17;100582.97;4159710;28;20132;-79
2023/07/11 05:47:35;;;;;;;12.80;5.55;;;;;;;24.33;52.50;100571.19;4157344;28;20095;-79
2023/07/11 05:49:38;;;;;;;10.13;5.85;;;;;;;24.37;52.03;100564.81;4177676;28;20094;-79
2023/07/11 05:51:41;;;;;;;11.80;5.47;;;;;;;24.40;51.76;100571.81;4164958;28;20119;-78
2023/07/11 05:53:45;;;;;;;12.75;5.82;;;;;;;24.45;50.13;100571.59;4177441;28;20067;-79
2023/07/11 05:55:47;;;;;;;14.02;5.20;;;;;;;24.53;50.38;100575.66;4161392;28;20038;-78
2023/07/11 05:57:50;;;;;;;14.77;6.32;;;;;;;24.61;50.90;100572.72;4177288;28;20045;-79
2023/07/11 05:59:53;;;;;;;13.50;6.28;;;;;;;24.63;49.16;100562.00;4177669;28;20029;-79
2023/07/11 06:01:58;;;;;;;13.13;6.50;;;;;;;24.68;49.85;100566.19;4177802;28;20129;-79
2023/07/11 06:04:07;;;;;;;;;;;;;;;24.70;50.70;100571.44;4177467;28;20033;-79
2023/07/11 06:06:10;;;;;;;10.10;4.95;;;;;;;24.80;51.46;100575.44;4177575;28;19986;-79
2023/07/11 06:08:13;;;;;;;12.32;5.55;;;;;;;24.90;51.44;100574.09;4177915;28;20064;-79
2023/07/11 06:10:16;;;;;;;14.10;5.78;;;;;;;24.94;51.12;100576.63;4163451;28;20041;-78
2023/07/11 06:12:19;;;;;;;11.70;5.00;;;;;;;24.98;50.87;100575.56;4177728;28;20544;-78
2023/07/11 06:14:23;;;;;;;20.23;6.00;;;;;;;25.00;50.69;100569.25;4158403;28;20120;-79
2023/07/11 06:16:26;;;;;;;14.15;6.18;;;;;;;25.05;49.75;100569.03;4178316;28;20430;-79
2023/07/11 06:18:30;;;;;;;13.27;6.82;;;;;;;25.09;48.07;100560.84;4177602;28;20033;-78
2023/07/11 06:20:32;;;;;;;15.45;6.63;;;;;;;25.15;47.65;100561.53;4177602;28;20075;-79
2023/07/11 06:22:35;;;;;;;14.05;7.47;;;;;;;25.19;47.64;100563.09;4177416;28;20045;-78
2023/07/11 06:24:38;;;;;;;11.30;5.72;;;;;;;25.27;48.26;100550.31;4177230;28;20056;-79
2023/07/11 06:26:43;;;;;;;12.90;5.88;;;;;;;25.35;48.67;100555.31;4163562;28;20037;-79
2023/07/11 06:28:46;;;;;;;8.80;5.55;;;;;;;25.36;48.50;100549.91;4175671;28;20119;-79
2023/07/11 06:30:49;;;;;;;11.38;6.25;;;;;;;25.40;48.59;100550.66;4178557;28;20128;-79
2023/07/11 06:32:52;;;;;;;13.32;6.72;;;;;;;25.48;48.42;100552.94;4163268;28;20134;-79
2023/07/11 06:34:56;;;;;;;13.43;6.28;;;;;;;25.57;48.41;100548.06;4180694;28;20045;-79
2023/07/11 06:36:59;;;;;;;14.88;5.80;;;;;;;25.64;47.88;100547.75;4180877;28;20037;-78
2023/07/11 06:39:02;;;;;;;18.80;6.53;;;;;;;25.69;47.56;100537.78;4180865;28;20123;-79
2023/07/11 06:41:05;;;;;;;13.00;6.60;;;;;;;25.73;47.02;100537.56;4166323;28;20048;-79
2023/07/11 06:43:09;;;;;;;12.32;6.22;;;;;;;25.81;47.23;100537.16;4178432;28;20072;-79
2023/07/11 06:45:11;;;;;;;14.98;6.90;;;;;;;25.87;46.73;100530.69;4178481;28;20124;-79
2023/07/11 06:47:14;;;;;;;19.45;6.00;;;;;;;25.95;46.55;100525.88;4175745;28;20041;-79
2023/07/11 06:49:17;;;;;;;26.45;8.05;;;;;;;26.02;45.83;100527.31;4180181;28;20037;-79
2023/07/11 06:51:21;;;;;;;17.92;8.15;;;;;;;26.04;44.88;100525.44;4177152;28;20127;-79
2023/07/11 06:53:26;;;;;;;13.88;7.57;;;;;;;26.16;43.96;100525.78;4158209;28;20038;-78
2023/07/11 06:55:30;;;;;;;13.68;7.07;;;;;;;26.23;44.86;100527.19;4179850;28;20061;-78
2023/07/11 06:57:32;;;;;;;20.27;9.13;;;;;;;26.37;43.22;100527.34;4180924;28;20037;-78
2023/07/11 06:59:35;;;;;;;17.77;8.75;;;;;;;26.41;43.48;100528.91;4175987;28;20366;-78
2023/07/11 07:01:38;;;;;;;16.13;7.85;;;;;;;26.41;44.06;100523.56;4176727;28;20041;-79
2023/07/11 07:03:41;;;;;;;17.58;7.10;;;;;;;26.48;45.14;100521.47;4155413;28;20910;-79
2023/07/11 07:05:48;;;;;;;16.90;6.90;;;;;;;26.57;45.08;100523.66;4177674;28;20124;-79
2023/07/11 07:07:52;;;;;;;12.48;7.55;;;;;;;26.66;44.19;100522.31;4180278;28;20087;-78
2023/07/11 07:10:11;;;;;;;11.32;6.47;;;;;;;26.69;44.11;100522.16;4180114;28;20537;-78
2023/07/11 07:12:13;;;;;;;15.00;8.00;;;;;;;26.69;43.25;100514.19;4168680;28;20564;-79
2023/07/11 07:14:16;;;;;;;14.63;7.97;;;;;;;26.75;43.56;100511.22;4164274;28;20037;-80
2023/07/11 07:16:19;;;;;;;25.73;8.70;;;;;;;26.86;43.67;100515.13;4179740;28;20045;-79
2023/07/11 07:18:23;;;;;;;17.70;7.45;;;;;;;26.83;43.35;100518.78;4180047;28;20041;-79
2023/07/11 07:20:26;;;;;;;12.38;6.60;;;;;;;26.89;44.16;100513.13;4179830;28;20053;-78
2023/07/11 07:22:29;;;;;;;9.05;5.70;;;;;;;26.95;43.76;100517.28;4179686;28;20648;-78
2023/07/11 07:24:33;;;;;;;13.88;6.95;;;;;;;27.05;42.44;100512.31;4179262;28;20043;-79
2023/07/11 07:26:36;;;;;;;;;;;;;;;27.03;42.95;100509.72;4180330;28;20402;-79
2023/07/11 07:28:39;;;;;;;11.70;6.30;;;;;;;27.11;42.83;100502.16;4179767;28;20390;-79
2023/07/11 07:30:45;;;;;;;12.02;6.18;;;;;;;27.20;42.50;100507.94;4176838;28;20147;-79
2023/07/11 07:32:48;;;;;;;15.55;7.82;;;;;;;27.31;42.26;100508.22;4179171;28;20055;-79
2023/07/11 07:34:51;;;;;;;10.25;6.20;;;;;;;27.32;42.06;100509.94;4178451;28;20029;-79
2023/07/11 07:36:54;;;;;;;10.60;6.43;;;;;;;27.33;41.70;100503.66;4177347;28;20067;-80
2023/07/11 07:38:57;;;;;;;12.45;6.50;;;;;;;27.42;41.46;100505.84;4178902;28;20176;-79
2023/07/11 07:41:04;;;;;;;15.63;5.88;;;;;;;27.45;41.66;100510.16;4179066;28;20087;-78
2023/07/11 07:43:10;;;;;;;14.68;6.38;;;;;;;27.47;41.72;100509.13;4164157;28;20085;-79
2023/07/11 07:45:13;;;;;;;11.32;6.47;;;;;;;27.52;41.45;100504.41;4177767;28;20029;-78
2023/07/11 07:47:16;;;;;;;12.93;6.32;;;;;;;27.55;41.14;100507.84;4178216;28;20064;-78
2023/07/11 07:49:19;;;;;;;13.57;6.13;;;;;;;27.59;40.77;100506.72;4164448;28;20136;-78
2023/07/11 07:51:22;;;;;;;12.35;5.70;;;;;;;27.65;41.05;100501.88;4179135;28;20059;-78
2023/07/11 07:53:25;;;;;;;10.02;5.40;;;;;;;27.73;40.70;100509.47;4179376;28;20208;-77
2023/07/11 07:55:27;;;;;;;9.75;5.45;;;;;;;27.77;41.12;100502.97;4162549;28;20055;-78
2023/07/11 07:57:32;;;;;;;12.45;7.18;;;;;;;27.95;39.33;100503.75;4176372;28;20140;-79
2023/07/11 07:59:35;;;;;;;15.48;6.40;;;;;;;27.91;39.39;100504.03;4175862;28;20053;-78
2023/07/11 08:01:37;;;;;;;12.50;6.15;;;;;;;27.92;40.19;100505.72;4165856;28;20045;-78
2023/07/11 08:03:41;;;;;;;9.98;5.72;;;;;;;27.99;40.19;100493.75;4179335;28;20398;-78
2023/07/11 08:05:44;;;;;;;9.90;5.80;;;;;;;27.92;40.13;100492.38;4178700;28;20057;-79
2023/07/11 08:07:47;;;;;;;15.32;6.20;;;;;;;27.90;40.81;100484.44;4178932;28;20099;-79
2023/07/11 08:09:50;;;;;;;9.47;5.70;;;;;;;27.85;40.34;100482.03;4157773;28;20552;-79
2023/07/11 08:11:53;;;;;;;11.80;6.03;;;;;;;27.97;39.85;100474.28;4172800;28;20044;-79
2023/07/11 08:13:58;;;;;;;9.85;6.05;;;;;;;28.00;39.67;100476.78;4178493;28;20402;-79
2023/07/11 08:16:02;;;;;;;13.20;6.70;;;;;;;28.09;40.48;100478.91;4179175;28;20037;-81
2023/07/11 08:18:20;;;;;;;14.38;6.88;;;;;;;28.25;38.79;100472.66;4177670;28;20045;-79
2023/07/11 08:20:23;;;;;;;13.45;5.65;;;;;;;28.20;39.49;100468.44;4193701;22;20554;-60
2023/07/11 08:22:26;;;;;;;9.35;5.53;;;;;;;28.28;39.94;100473.34;4128919;28;20113;-60
2023/07/11 08:24:29;;;;;;;12.40;6.43;;;;;;;28.40;39.70;100471.72;4127533;28;20043;-60
2023/07/11 08:26:32;;;;;;;14.85;6.05;;;;;;;28.45;39.75;100463.47;4128357;28;20046;-60
2023/07/11 08:28:35;;;;;;;10.13;5.47;;;;;;;28.47;39.16;100464.22;4141707;28;20045;-60
2023/07/11 08:30:40;;;;;;;10.73;5.63;;;;;;;28.44;39.29;100462.56;4146263;28;20046;-61
2023/07/11 08:32:43;;;;;;;12.90;5.35;;;;;;;28.46;39.75;100459.81;4146044;28;20046;-60
2023/07/11 08:34:46;;;;;;;12.65;5.60;;;;;;;28.47;39.77;100457.03;4128038;28;20086;-60
2023/07/11 08:36:49;;;;;;;14.02;6.88;;;;;;;28.63;39.24;100450.78;4144049;28;20048;-60
2023/07/11 08:38:52;;;;;;;9.95;4.97;;;;;;;28.69;39.69;100448.59;4145255;28;20524;-60
2023/07/11 08:40:56;;;;;;;16.30;5.63;;;;;;;28.79;39.65;100451.56;4128712;28;20081;-60
2023/07/11 08:43:04;;;;;;;9.88;5.47;;;;;;;28.90;39.33;100443.72;4145726;28;20042;-60
2023/07/11 08:45:18;;;;;;;10.60;5.78;;;;;;;28.98;39.68;100443.22;4145037;28;20042;-60
2023/07/11 08:47:29;;;;;;;9.52;6.40;;;;;;;29.13;39.40;100448.56;4145030;28;20069;-60
2023/07/11 08:49:37;;;;;;;8.20;5.07;;;;;;;29.23;38.91;100439.91;4145388;28;20034;-61
2023/07/11 08:51:45;;;;;;;12.13;6.57;;;;;;;29.12;38.78;100441.47;4145744;28;20058;-60
2023/07/11 08:53:55;;;;;;;10.63;6.32;;;;;;;29.18;38.35;100435.75;4141675;28;20050;-60
2023/07/11 08:56:08;;;;;;;11.02;6.22;;;;;;;29.30;38.76;100429.63;4142746;28;20125;-61
2023/07/11 08:58:15;;;;;;;8.80;5.60;;;;;;;29.45;38.72;100435.78;4144452;28;20042;-60
2023/07/11 09:00:19;;;;;;;12.73;5.93;;;;;;;29.55;38.13;100428.88;4143411;28;20120;-61
2023/07/11 09:02:35;;;;;;;11.70;5.63;;;;;;;29.52;38.10;100423.72;4145356;28;20064;-60
2023/07/11 09:04:45;;;;;;;8.38;5.72;;;;;;;29.59;38.07;100422.34;4144735;28;20034;-60
2023/07/11 09:06:54;;;;;;;11.63;5.70;;;;;;;29.67;37.95;100421.00;4111830;28;20513;-60
2023/07/11 09:08:57;;;;;;;8.98;5.47;;;;;;;29.76;37.74;100423.06;4145887;28;20053;-60
2023/07/11 09:11:05;;;;;;;11.50;5.40;;;;;;;29.85;37.60;100410.91;4145368;28;20042;-60
2023/07/11 09:13:21;;;;;;;11.35;4.95;;;;;;;30.01;38.07;100408.00;4145370;28;20571;-61
2023/07/11 09:15:33;;;;;;;8.95;5.63;;;;;;;30.07;37.50;100394.22;4144843;28;20033;-60
2023/07/11 09:17:51;;;;;;;11.25;5.03;;;;;;;30.20;37.45;100405.81;4145021;28;20469;-61
2023/07/11 09:20:14;;;;;;;8.48;5.00;;;;;;;30.20;36.81;100397.75;4145859;28;20064;-60
2023/07/11 09:22:25;;;;;;;8.68;5.38;;;;;;;30.40;36.50;100392.81;4145227;28;20121;-60
2023/07/11 09:24:37;;;;;;;11.48;5.32;;;;;;;30.31;36.15;100391.63;4141758;28;20125;-60
2023/07/11 09:26:47;;;;;;;7.32;4.90;;;;;;;30.28;36.12;100390.00;4125731;28;20042;-60
2023/07/11 09:28:50;;;;;;;7.28;4.15;;;;;;;30.27;36.35;100385.63;4145116;28;20034;-61
2023/07/11 09:30:58;;;;;;;6.93;5.13;;;;;;;30.43;36.53;100389.94;4144858;28;20037;-60
2023/07/11 09:33:22;;;;;;;12.68;5.55;;;;;;;30.53;36.14;100384.78;4144914;28;20041;-60
2023/07/11 09:35:29;;;;;;;10.55;5.30;;;;;;;30.67;35.15;100379.31;4144053;28;20203;-60